sensor_id;sensor_type;location;lat;lon;timestamp;temperature;humidity
67817;DHT22;54614;47.576;7.524;2023-06-14T00:00:58;24.10;47.20
67817;DHT22;54614;47.576;7.524;2023-06-14T00:03:24;24.10;47.20
67817;DHT22;54614;47.576;7.524;2023-06-14T00:05:51;24.10;47.30
67817;DHT22;54614;47.576;7.524;2023-06-14T00:08:17;24.10;47.40
67817;DHT22;54614;47.576;7.524;2023-06-14T00:10:44;24.00;47.20
67817;DHT22;54614;47.576;7.524;2023-06-14T00:13:10;24.00;47.40
67817;DHT22;54614;47.576;7.524;2023-06-14T00:15:36;24.00;47.20
67817;DHT22;54614;47.576;7.524;2023-06-14T00:18:03;24.00;46.70
67817;DHT22;54614;47.576;7.524;2023-06-14T00:20:31;23.90;46.90
67817;DHT22;54614;47.576;7.524;2023-06-14T00:23:01;23.90;47.30
67817;DHT22;54614;47.576;7.524;2023-06-14T00:25:27;23.90;47.30
67817;DHT22;54614;47.576;7.524;2023-06-14T00:27:54;23.90;47.20
67817;DHT22;54614;47.576;7.524;2023-06-14T00:30:21;23.80;47.30
67817;DHT22;54614;47.576;7.524;2023-06-14T00:32:47;23.80;47.50
67817;DHT22;54614;47.576;7.524;2023-06-14T00:35:13;23.80;47.60
67817;DHT22;54614;47.576;7.524;2023-06-14T00:37:39;23.70;47.60
67817;DHT22;54614;47.576;7.524;2023-06-14T00:40:06;23.60;47.50
67817;DHT22;54614;47.576;7.524;2023-06-14T00:42:33;23.50;47.70
67817;DHT22;54614;47.576;7.524;2023-06-14T00:44:59;23.50;47.90
67817;DHT22;54614;47.576;7.524;2023-06-14T00:47:25;23.40;48.00
67817;DHT22;54614;47.576;7.524;2023-06-14T00:49:53;23.40;48.00
67817;DHT22;54614;47.576;7.524;2023-06-14T00:52:21;23.40;48.10
67817;DHT22;54614;47.576;7.524;2023-06-14T00:54:49;23.40;48.20
67817;DHT22;54614;47.576;7.524;2023-06-14T00:57:15;23.40;48.20
67817;DHT22;54614;47.576;7.524;2023-06-14T00:59:47;23.30;48.40
67817;DHT22;54614;47.576;7.524;2023-06-14T01:02:14;23.30;48.30
67817;DHT22;54614;47.576;7.524;2023-06-14T01:04:41;23.30;48.40
67817;DHT22;54614;47.576;7.524;2023-06-14T01:15:36;23.20;48.40
67817;DHT22;54614;47.576;7.524;2023-06-14T01:18:03;23.20;48.40
67817;DHT22;54614;47.576;7.524;2023-06-14T01:20:32;23.20;48.20
67817;DHT22;54614;47.576;7.524;2023-06-14T01:23:02;23.20;48.30
67817;DHT22;54614;47.576;7.524;2023-06-14T01:25:27;23.20;48.30
67817;DHT22;54614;47.576;7.524;2023-06-14T01:30:29;23.20;48.30
67817;DHT22;54614;47.576;7.524;2023-06-14T01:32:58;23.20;48.40
67817;DHT22;54614;47.576;7.524;2023-06-14T01:35:25;23.10;48.40
67817;DHT22;54614;47.576;7.524;2023-06-14T01:37:51;23.10;48.50
67817;DHT22;54614;47.576;7.524;2023-06-14T01:40:19;23.10;48.50
67817;DHT22;54614;47.576;7.524;2023-06-14T01:42:47;23.10;48.50
67817;DHT22;54614;47.576;7.524;2023-06-14T01:45:15;23.10;48.60
67817;DHT22;54614;47.576;7.524;2023-06-14T01:47:43;23.10;48.50
67817;DHT22;54614;47.576;7.524;2023-06-14T01:50:11;23.00;48.60
67817;DHT22;54614;47.576;7.524;2023-06-14T01:52:37;23.00;48.70
67817;DHT22;54614;47.576;7.524;2023-06-14T01:55:07;23.00;48.60
67817;DHT22;54614;47.576;7.524;2023-06-14T01:57:33;23.00;48.60
67817;DHT22;54614;47.576;7.524;2023-06-14T01:59:59;23.00;48.70
67817;DHT22;54614;47.576;7.524;2023-06-14T02:02:25;22.90;48.60
67817;DHT22;54614;47.576;7.524;2023-06-14T02:04:50;22.90;48.70
67817;DHT22;54614;47.576;7.524;2023-06-14T02:07:17;22.90;48.60
67817;DHT22;54614;47.576;7.524;2023-06-14T02:09:43;22.90;48.60
67817;DHT22;54614;47.576;7.524;2023-06-14T02:12:09;22.90;48.70
67817;DHT22;54614;47.576;7.524;2023-06-14T02:14:36;22.90;48.80
67817;DHT22;54614;47.576;7.524;2023-06-14T02:17:02;22.90;48.60
67817;DHT22;54614;47.576;7.524;2023-06-14T02:19:27;22.90;48.70
67817;DHT22;54614;47.576;7.524;2023-06-14T02:21:53;22.90;48.60
67817;DHT22;54614;47.576;7.524;2023-06-14T02:24:19;22.80;48.60
67817;DHT22;54614;47.576;7.524;2023-06-14T02:26:45;22.80;48.70
67817;DHT22;54614;47.576;7.524;2023-06-14T02:29:11;22.80;48.70
67817;DHT22;54614;47.576;7.524;2023-06-14T02:31:40;22.80;48.70
67817;DHT22;54614;47.576;7.524;2023-06-14T02:34:06;22.80;48.50
67817;DHT22;54614;47.576;7.524;2023-06-14T02:36:37;22.70;48.80
67817;DHT22;54614;47.576;7.524;2023-06-14T02:39:08;22.70;48.80
67817;DHT22;54614;47.576;7.524;2023-06-14T02:41:37;22.70;48.90
67817;DHT22;54614;47.576;7.524;2023-06-14T02:44:03;22.70;48.70
67817;DHT22;54614;47.576;7.524;2023-06-14T02:46:29;22.70;48.70
67817;DHT22;54614;47.576;7.524;2023-06-14T02:48:55;22.70;48.80
67817;DHT22;54614;47.576;7.524;2023-06-14T02:51:21;22.70;48.70
67817;DHT22;54614;47.576;7.524;2023-06-14T02:53:46;22.70;48.70
67817;DHT22;54614;47.576;7.524;2023-06-14T02:56:12;22.60;48.80
67817;DHT22;54614;47.576;7.524;2023-06-14T02:58:38;22.60;48.70
67817;DHT22;54614;47.576;7.524;2023-06-14T03:01:05;22.60;48.80
67817;DHT22;54614;47.576;7.524;2023-06-14T03:03:33;22.60;48.80
67817;DHT22;54614;47.576;7.524;2023-06-14T03:05:59;22.60;48.70
67817;DHT22;54614;47.576;7.524;2023-06-14T03:08:30;22.60;48.90
67817;DHT22;54614;47.576;7.524;2023-06-14T03:10:58;22.60;48.80
67817;DHT22;54614;47.576;7.524;2023-06-14T03:13:24;22.50;49.00
67817;DHT22;54614;47.576;7.524;2023-06-14T03:15:50;22.50;49.00
67817;DHT22;54614;47.576;7.524;2023-06-14T03:18:16;22.50;48.90
67817;DHT22;54614;47.576;7.524;2023-06-14T03:20:42;22.50;48.90
67817;DHT22;54614;47.576;7.524;2023-06-14T03:23:11;22.50;49.10
67817;DHT22;54614;47.576;7.524;2023-06-14T03:25:37;22.40;49.00
67817;DHT22;54614;47.576;7.524;2023-06-14T03:28:05;22.40;48.90
67817;DHT22;54614;47.576;7.524;2023-06-14T03:30:31;22.40;49.00
67817;DHT22;54614;47.576;7.524;2023-06-14T03:32:57;22.40;49.10
67817;DHT22;54614;47.576;7.524;2023-06-14T03:35:28;22.40;49.20
67817;DHT22;54614;47.576;7.524;2023-06-14T03:37:54;22.40;49.40
67817;DHT22;54614;47.576;7.524;2023-06-14T03:40:21;22.40;49.90
67817;DHT22;54614;47.576;7.524;2023-06-14T03:42:47;22.40;50.00
67817;DHT22;54614;47.576;7.524;2023-06-14T03:45:13;22.40;49.70
67817;DHT22;54614;47.576;7.524;2023-06-14T03:47:38;22.40;49.30
67817;DHT22;54614;47.576;7.524;2023-06-14T03:50:05;22.30;49.20
67817;DHT22;54614;47.576;7.524;2023-06-14T03:52:31;22.30;49.10
67817;DHT22;54614;47.576;7.524;2023-06-14T03:54:58;22.30;48.90
67817;DHT22;54614;47.576;7.524;2023-06-14T03:57:25;22.30;48.80
67817;DHT22;54614;47.576;7.524;2023-06-14T03:59:51;22.30;49.10
67817;DHT22;54614;47.576;7.524;2023-06-14T04:02:17;22.30;49.50
67817;DHT22;54614;47.576;7.524;2023-06-14T04:04:44;22.40;49.50
67817;DHT22;54614;47.576;7.524;2023-06-14T04:07:16;22.40;49.60
67817;DHT22;54614;47.576;7.524;2023-06-14T04:09:45;22.50;49.60
67817;DHT22;54614;47.576;7.524;2023-06-14T04:12:12;22.50;49.80
67817;DHT22;54614;47.576;7.524;2023-06-14T04:14:39;22.50;49.80
67817;DHT22;54614;47.576;7.524;2023-06-14T04:17:06;22.60;50.00
67817;DHT22;54614;47.576;7.524;2023-06-14T04:19:32;22.60;50.20
67817;DHT22;54614;47.576;7.524;2023-06-14T04:22:01;22.60;50.40
67817;DHT22;54614;47.576;7.524;2023-06-14T04:24:28;22.60;50.40
67817;DHT22;54614;47.576;7.524;2023-06-14T04:27:00;22.60;50.40
67817;DHT22;54614;47.576;7.524;2023-06-14T04:29:29;22.60;50.40
67817;DHT22;54614;47.576;7.524;2023-06-14T04:31:55;22.60;50.70
67817;DHT22;54614;47.576;7.524;2023-06-14T04:34:25;22.60;50.70
67817;DHT22;54614;47.576;7.524;2023-06-14T04:36:55;22.60;50.70
67817;DHT22;54614;47.576;7.524;2023-06-14T04:39:22;22.70;50.70
67817;DHT22;54614;47.576;7.524;2023-06-14T04:41:48;22.70;51.30
67817;DHT22;54614;47.576;7.524;2023-06-14T04:44:18;22.70;50.90
67817;DHT22;54614;47.576;7.524;2023-06-14T04:46:45;22.70;50.80
67817;DHT22;54614;47.576;7.524;2023-06-14T04:49:15;22.70;51.00
67817;DHT22;54614;47.576;7.524;2023-06-14T04:51:43;22.70;51.00
67817;DHT22;54614;47.576;7.524;2023-06-14T04:54:10;22.70;51.00
67817;DHT22;54614;47.576;7.524;2023-06-14T04:56:40;22.70;51.10
67817;DHT22;54614;47.576;7.524;2023-06-14T04:59:06;22.70;51.30
67817;DHT22;54614;47.576;7.524;2023-06-14T05:01:34;22.80;53.40
67817;DHT22;54614;47.576;7.524;2023-06-14T05:04:00;23.00;53.30
67817;DHT22;54614;47.576;7.524;2023-06-14T05:06:26;23.20;53.00
67817;DHT22;54614;47.576;7.524;2023-06-14T05:08:56;23.20;52.40
67817;DHT22;54614;47.576;7.524;2023-06-14T05:11:22;23.10;52.70
67817;DHT22;54614;47.576;7.524;2023-06-14T05:13:49;23.00;52.40
67817;DHT22;54614;47.576;7.524;2023-06-14T05:16:16;22.90;51.60
67817;DHT22;54614;47.576;7.524;2023-06-14T05:18:45;22.80;52.30
67817;DHT22;54614;47.576;7.524;2023-06-14T05:21:13;22.90;52.30
67817;DHT22;54614;47.576;7.524;2023-06-14T05:23:43;22.90;52.50
67817;DHT22;54614;47.576;7.524;2023-06-14T05:26:10;22.80;52.30
67817;DHT22;54614;47.576;7.524;2023-06-14T05:28:36;22.90;52.30
67817;DHT22;54614;47.576;7.524;2023-06-14T05:31:02;22.90;52.20
67817;DHT22;54614;47.576;7.524;2023-06-14T05:33:28;22.80;52.10
67817;DHT22;54614;47.576;7.524;2023-06-14T05:35:54;22.90;52.30
67817;DHT22;54614;47.576;7.524;2023-06-14T05:38:21;22.90;51.90
67817;DHT22;54614;47.576;7.524;2023-06-14T05:40:46;22.90;52.00
67817;DHT22;54614;47.576;7.524;2023-06-14T05:43:13;22.90;51.70
67817;DHT22;54614;47.576;7.524;2023-06-14T05:45:38;22.90;53.90
67817;DHT22;54614;47.576;7.524;2023-06-14T05:48:05;23.10;52.80
67817;DHT22;54614;47.576;7.524;2023-06-14T05:50:31;23.10;52.00
67817;DHT22;54614;47.576;7.524;2023-06-14T05:52:56;23.20;53.30
67817;DHT22;54614;47.576;7.524;2023-06-14T05:55:22;23.30;53.70
67817;DHT22;54614;47.576;7.524;2023-06-14T05:57:48;23.40;53.80
67817;DHT22;54614;47.576;7.524;2023-06-14T06:00:14;23.40;53.90
67817;DHT22;54614;47.576;7.524;2023-06-14T06:02:42;23.40;53.80
67817;DHT22;54614;47.576;7.524;2023-06-14T06:05:09;23.40;53.80
67817;DHT22;54614;47.576;7.524;2023-06-14T06:07:36;23.40;53.70
67817;DHT22;54614;47.576;7.524;2023-06-14T06:10:03;23.40;53.50
67817;DHT22;54614;47.576;7.524;2023-06-14T06:12:30;23.50;53.60
67817;DHT22;54614;47.576;7.524;2023-06-14T06:14:56;23.50;53.40
67817;DHT22;54614;47.576;7.524;2023-06-14T06:17:22;23.50;53.60
67817;DHT22;54614;47.576;7.524;2023-06-14T06:19:48;23.50;53.30
67817;DHT22;54614;47.576;7.524;2023-06-14T06:22:14;23.40;53.00
67817;DHT22;54614;47.576;7.524;2023-06-14T06:24:39;23.30;52.20
67817;DHT22;54614;47.576;7.524;2023-06-14T06:27:05;23.20;51.90
67817;DHT22;54614;47.576;7.524;2023-06-14T06:29:33;23.10;51.60
67817;DHT22;54614;47.576;7.524;2023-06-14T06:32:00;23.00;51.50
67817;DHT22;54614;47.576;7.524;2023-06-14T06:34:27;23.10;51.50
67817;DHT22;54614;47.576;7.524;2023-06-14T06:36:53;23.10;51.40
67817;DHT22;54614;47.576;7.524;2023-06-14T06:39:19;23.00;51.70
67817;DHT22;54614;47.576;7.524;2023-06-14T06:41:44;23.00;51.60
67817;DHT22;54614;47.576;7.524;2023-06-14T06:44:10;23.00;51.80
67817;DHT22;54614;47.576;7.524;2023-06-14T06:46:36;23.00;51.50
67817;DHT22;54614;47.576;7.524;2023-06-14T06:49:06;23.00;51.50
67817;DHT22;54614;47.576;7.524;2023-06-14T06:51:34;23.00;51.40
67817;DHT22;54614;47.576;7.524;2023-06-14T06:54:00;23.00;51.30
67817;DHT22;54614;47.576;7.524;2023-06-14T06:56:26;22.90;51.30
67817;DHT22;54614;47.576;7.524;2023-06-14T06:58:52;22.90;51.10
67817;DHT22;54614;47.576;7.524;2023-06-14T07:01:18;22.90;50.90
67817;DHT22;54614;47.576;7.524;2023-06-14T07:03:47;22.90;50.90
67817;DHT22;54614;47.576;7.524;2023-06-14T07:06:13;22.90;50.90
67817;DHT22;54614;47.576;7.524;2023-06-14T07:08:38;22.90;51.30
67817;DHT22;54614;47.576;7.524;2023-06-14T07:11:05;22.90;51.80
67817;DHT22;54614;47.576;7.524;2023-06-14T07:13:31;22.90;51.80
67817;DHT22;54614;47.576;7.524;2023-06-14T07:16:00;23.00;53.40
67817;DHT22;54614;47.576;7.524;2023-06-14T07:18:27;23.00;53.50
67817;DHT22;54614;47.576;7.524;2023-06-14T07:20:53;23.00;53.50
67817;DHT22;54614;47.576;7.524;2023-06-14T07:23:20;23.00;53.10
67817;DHT22;54614;47.576;7.524;2023-06-14T07:25:46;23.20;53.80
67817;DHT22;54614;47.576;7.524;2023-06-14T07:28:12;23.20;53.40
67817;DHT22;54614;47.576;7.524;2023-06-14T07:30:38;23.20;53.30
67817;DHT22;54614;47.576;7.524;2023-06-14T07:33:04;23.30;57.50
67817;DHT22;54614;47.576;7.524;2023-06-14T07:35:29;23.40;56.30
67817;DHT22;54614;47.576;7.524;2023-06-14T07:37:55;23.40;55.00
67817;DHT22;54614;47.576;7.524;2023-06-14T07:40:21;23.40;54.40
67817;DHT22;54614;47.576;7.524;2023-06-14T07:42:47;23.50;54.20
67817;DHT22;54614;47.576;7.524;2023-06-14T07:45:14;23.50;54.00
67817;DHT22;54614;47.576;7.524;2023-06-14T07:47:39;23.50;53.80
67817;DHT22;54614;47.576;7.524;2023-06-14T07:50:05;23.50;53.60
67817;DHT22;54614;47.576;7.524;2023-06-14T07:52:31;23.50;53.40
67817;DHT22;54614;47.576;7.524;2023-06-14T07:54:57;23.50;53.10
67817;DHT22;54614;47.576;7.524;2023-06-14T07:57:23;23.50;53.00
67817;DHT22;54614;47.576;7.524;2023-06-14T07:59:49;23.50;52.90
67817;DHT22;54614;47.576;7.524;2023-06-14T08:02:15;23.50;52.80
67817;DHT22;54614;47.576;7.524;2023-06-14T08:04:41;23.50;52.80
67817;DHT22;54614;47.576;7.524;2023-06-14T08:07:08;23.50;53.00
67817;DHT22;54614;47.576;7.524;2023-06-14T08:09:35;23.50;52.90
67817;DHT22;54614;47.576;7.524;2023-06-14T08:12:04;23.60;53.00
67817;DHT22;54614;47.576;7.524;2023-06-14T08:14:33;23.60;52.90
67817;DHT22;54614;47.576;7.524;2023-06-14T08:16:59;23.60;52.80
67817;DHT22;54614;47.576;7.524;2023-06-14T08:19:25;23.60;52.70
67817;DHT22;54614;47.576;7.524;2023-06-14T08:21:51;23.50;53.80
67817;DHT22;54614;47.576;7.524;2023-06-14T08:24:17;23.60;54.10
67817;DHT22;54614;47.576;7.524;2023-06-14T08:26:44;23.60;54.20
67817;DHT22;54614;47.576;7.524;2023-06-14T08:29:10;23.60;53.80
67817;DHT22;54614;47.576;7.524;2023-06-14T08:31:35;23.60;54.00
67817;DHT22;54614;47.576;7.524;2023-06-14T08:34:01;23.70;54.10
67817;DHT22;54614;47.576;7.524;2023-06-14T08:36:27;23.70;54.10
67817;DHT22;54614;47.576;7.524;2023-06-14T08:38:53;23.80;54.20
67817;DHT22;54614;47.576;7.524;2023-06-14T08:41:21;23.80;54.00
67817;DHT22;54614;47.576;7.524;2023-06-14T08:43:52;23.80;54.00
67817;DHT22;54614;47.576;7.524;2023-06-14T08:46:18;23.90;53.80
67817;DHT22;54614;47.576;7.524;2023-06-14T08:48:51;24.00;53.90
67817;DHT22;54614;47.576;7.524;2023-06-14T08:51:19;24.10;53.70
67817;DHT22;54614;47.576;7.524;2023-06-14T08:53:54;24.10;53.50
67817;DHT22;54614;47.576;7.524;2023-06-14T08:56:26;24.20;53.50
67817;DHT22;54614;47.576;7.524;2023-06-14T08:58:54;24.30;53.40
67817;DHT22;54614;47.576;7.524;2023-06-14T09:01:22;24.30;53.70
67817;DHT22;54614;47.576;7.524;2023-06-14T09:03:49;24.30;53.90
67817;DHT22;54614;47.576;7.524;2023-06-14T09:06:16;24.40;53.70
67817;DHT22;54614;47.576;7.524;2023-06-14T09:08:47;24.40;53.90
67817;DHT22;54614;47.576;7.524;2023-06-14T09:11:15;24.40;53.40
67817;DHT22;54614;47.576;7.524;2023-06-14T09:13:48;24.50;53.20
67817;DHT22;54614;47.576;7.524;2023-06-14T09:16:16;24.50;53.10
67817;DHT22;54614;47.576;7.524;2023-06-14T09:18:44;24.50;53.10
67817;DHT22;54614;47.576;7.524;2023-06-14T09:21:13;24.60;53.40
67817;DHT22;54614;47.576;7.524;2023-06-14T09:23:42;24.60;53.20
67817;DHT22;54614;47.576;7.524;2023-06-14T09:26:11;24.70;52.90
67817;DHT22;54614;47.576;7.524;2023-06-14T09:28:56;24.70;52.70
67817;DHT22;54614;47.576;7.524;2023-06-14T09:31:22;24.70;52.60
67817;DHT22;54614;47.576;7.524;2023-06-14T09:33:49;24.70;52.50
67817;DHT22;54614;47.576;7.524;2023-06-14T09:36:25;24.70;52.40
67817;DHT22;54614;47.576;7.524;2023-06-14T09:38:59;24.70;52.20
67817;DHT22;54614;47.576;7.524;2023-06-14T09:41:40;24.70;52.20
67817;DHT22;54614;47.576;7.524;2023-06-14T09:44:10;24.70;52.20
67817;DHT22;54614;47.576;7.524;2023-06-14T09:46:37;24.70;52.10
67817;DHT22;54614;47.576;7.524;2023-06-14T09:49:04;24.70;52.00
67817;DHT22;54614;47.576;7.524;2023-06-14T09:51:31;24.70;51.90
67817;DHT22;54614;47.576;7.524;2023-06-14T09:54:03;24.70;51.90
67817;DHT22;54614;47.576;7.524;2023-06-14T09:56:35;24.70;51.70
67817;DHT22;54614;47.576;7.524;2023-06-14T09:59:09;24.70;51.70
67817;DHT22;54614;47.576;7.524;2023-06-14T10:01:42;24.70;51.70
67817;DHT22;54614;47.576;7.524;2023-06-14T10:04:09;24.70;51.70
67817;DHT22;54614;47.576;7.524;2023-06-14T10:06:43;24.70;51.80
67817;DHT22;54614;47.576;7.524;2023-06-14T10:09:11;24.70;52.20
67817;DHT22;54614;47.576;7.524;2023-06-14T10:11:38;24.80;52.80
67817;DHT22;54614;47.576;7.524;2023-06-14T10:14:10;24.80;52.90
67817;DHT22;54614;47.576;7.524;2023-06-14T10:16:48;24.80;52.90
67817;DHT22;54614;47.576;7.524;2023-06-14T10:19:41;24.80;52.90
67817;DHT22;54614;47.576;7.524;2023-06-14T10:22:26;24.80;52.90
67817;DHT22;54614;47.576;7.524;2023-06-14T10:24:58;24.80;52.80
67817;DHT22;54614;47.576;7.524;2023-06-14T10:27:25;24.80;52.80
67817;DHT22;54614;47.576;7.524;2023-06-14T10:32:21;24.80;53.20
67817;DHT22;54614;47.576;7.524;2023-06-14T10:35:05;24.80;53.20
67817;DHT22;54614;47.576;7.524;2023-06-14T10:37:32;24.80;53.00
67817;DHT22;54614;47.576;7.524;2023-06-14T10:39:59;24.80;52.70
67817;DHT22;54614;47.576;7.524;2023-06-14T10:42:34;24.80;52.70
67817;DHT22;54614;47.576;7.524;2023-06-14T10:45:00;24.80;52.70
67817;DHT22;54614;47.576;7.524;2023-06-14T10:47:35;24.80;52.60
67817;DHT22;54614;47.576;7.524;2023-06-14T10:50:07;24.80;52.40
67817;DHT22;54614;47.576;7.524;2023-06-14T10:52:39;24.80;52.50
67817;DHT22;54614;47.576;7.524;2023-06-14T10:55:11;24.80;52.60
67817;DHT22;54614;47.576;7.524;2023-06-14T10:57:47;24.80;52.60
67817;DHT22;54614;47.576;7.524;2023-06-14T11:00:29;24.80;52.60
67817;DHT22;54614;47.576;7.524;2023-06-14T11:05:57;24.80;52.60
67817;DHT22;54614;47.576;7.524;2023-06-14T11:11:31;24.80;52.70
67817;DHT22;54614;47.576;7.524;2023-06-14T11:14:01;24.90;52.70
67817;DHT22;54614;47.576;7.524;2023-06-14T11:16:28;24.90;52.80
67817;DHT22;54614;47.576;7.524;2023-06-14T11:18:54;24.80;52.70
67817;DHT22;54614;47.576;7.524;2023-06-14T11:21:20;24.90;52.80
67817;DHT22;54614;47.576;7.524;2023-06-14T11:23:50;24.80;52.80
67817;DHT22;54614;47.576;7.524;2023-06-14T11:26:25;24.90;52.90
67817;DHT22;54614;47.576;7.524;2023-06-14T11:28:56;24.80;52.80
67817;DHT22;54614;47.576;7.524;2023-06-14T11:31:23;24.90;52.90
67817;DHT22;54614;47.576;7.524;2023-06-14T11:33:59;24.80;52.90
67817;DHT22;54614;47.576;7.524;2023-06-14T11:36:30;24.90;52.90
67817;DHT22;54614;47.576;7.524;2023-06-14T11:39:00;24.90;52.90
67817;DHT22;54614;47.576;7.524;2023-06-14T11:41:40;24.90;52.90
67817;DHT22;54614;47.576;7.524;2023-06-14T11:44:08;24.90;52.90
67817;DHT22;54614;47.576;7.524;2023-06-14T11:46:34;24.90;52.80
67817;DHT22;54614;47.576;7.524;2023-06-14T11:49:01;24.90;52.80
67817;DHT22;54614;47.576;7.524;2023-06-14T11:51:33;24.90;52.80
67817;DHT22;54614;47.576;7.524;2023-06-14T11:54:01;25.00;52.80
67817;DHT22;54614;47.576;7.524;2023-06-14T11:56:29;25.00;52.90
67817;DHT22;54614;47.576;7.524;2023-06-14T11:58:57;25.00;52.90
67817;DHT22;54614;47.576;7.524;2023-06-14T12:01:23;25.00;52.80
67817;DHT22;54614;47.576;7.524;2023-06-14T12:03:52;25.00;52.90
67817;DHT22;54614;47.576;7.524;2023-06-14T12:06:30;25.00;52.80
67817;DHT22;54614;47.576;7.524;2023-06-14T12:09:04;25.00;52.90
67817;DHT22;54614;47.576;7.524;2023-06-14T12:11:34;25.00;52.80
67817;DHT22;54614;47.576;7.524;2023-06-14T12:14:03;25.00;52.90
67817;DHT22;54614;47.576;7.524;2023-06-14T12:16:32;25.00;52.90
67817;DHT22;54614;47.576;7.524;2023-06-14T12:19:12;25.00;52.90
67817;DHT22;54614;47.576;7.524;2023-06-14T12:21:39;25.00;52.90
67817;DHT22;54614;47.576;7.524;2023-06-14T12:24:07;25.00;52.90
67817;DHT22;54614;47.576;7.524;2023-06-14T12:26:33;25.00;53.00
67817;DHT22;54614;47.576;7.524;2023-06-14T12:29:05;25.00;53.00
67817;DHT22;54614;47.576;7.524;2023-06-14T12:31:32;25.00;53.00
67817;DHT22;54614;47.576;7.524;2023-06-14T12:33:57;25.00;53.00
67817;DHT22;54614;47.576;7.524;2023-06-14T12:36:24;25.00;53.00
67817;DHT22;54614;47.576;7.524;2023-06-14T12:38:51;25.00;53.00
67817;DHT22;54614;47.576;7.524;2023-06-14T12:41:21;25.00;53.00
67817;DHT22;54614;47.576;7.524;2023-06-14T12:43:48;25.00;53.00
67817;DHT22;54614;47.576;7.524;2023-06-14T12:46:13;25.00;53.00
67817;DHT22;54614;47.576;7.524;2023-06-14T12:48:39;25.00;53.00
67817;DHT22;54614;47.576;7.524;2023-06-14T12:51:05;25.00;53.00
67817;DHT22;54614;47.576;7.524;2023-06-14T12:53:31;25.00;53.00
67817;DHT22;54614;47.576;7.524;2023-06-14T12:55:57;25.00;53.00
67817;DHT22;54614;47.576;7.524;2023-06-14T12:58:23;25.00;53.00
67817;DHT22;54614;47.576;7.524;2023-06-14T13:00:49;25.00;53.00
67817;DHT22;54614;47.576;7.524;2023-06-14T13:03:15;25.00;53.00
67817;DHT22;54614;47.576;7.524;2023-06-14T13:05:42;25.00;53.00
67817;DHT22;54614;47.576;7.524;2023-06-14T13:08:08;25.10;53.10
67817;DHT22;54614;47.576;7.524;2023-06-14T13:10:35;25.00;53.00
67817;DHT22;54614;47.576;7.524;2023-06-14T13:13:01;25.10;53.00
67817;DHT22;54614;47.576;7.524;2023-06-14T13:15:27;25.10;53.00
67817;DHT22;54614;47.576;7.524;2023-06-14T13:17:53;25.10;53.00
67817;DHT22;54614;47.576;7.524;2023-06-14T13:20:19;25.10;53.00
67817;DHT22;54614;47.576;7.524;2023-06-14T13:22:45;25.10;53.10
67817;DHT22;54614;47.576;7.524;2023-06-14T13:25:11;25.10;53.10
67817;DHT22;54614;47.576;7.524;2023-06-14T13:27:37;25.10;53.10
67817;DHT22;54614;47.576;7.524;2023-06-14T13:30:03;25.10;53.10
67817;DHT22;54614;47.576;7.524;2023-06-14T13:32:31;25.10;53.10
67817;DHT22;54614;47.576;7.524;2023-06-14T13:34:57;25.20;53.20
67817;DHT22;54614;47.576;7.524;2023-06-14T13:37:23;25.10;53.20
67817;DHT22;54614;47.576;7.524;2023-06-14T13:39:49;25.10;53.20
67817;DHT22;54614;47.576;7.524;2023-06-14T13:42:15;25.10;53.20
67817;DHT22;54614;47.576;7.524;2023-06-14T13:44:41;25.20;53.30
67817;DHT22;54614;47.576;7.524;2023-06-14T13:47:06;25.10;53.20
67817;DHT22;54614;47.576;7.524;2023-06-14T13:49:32;25.20;53.30
67817;DHT22;54614;47.576;7.524;2023-06-14T13:52:00;25.20;53.30
67817;DHT22;54614;47.576;7.524;2023-06-14T13:54:26;25.20;53.30
67817;DHT22;54614;47.576;7.524;2023-06-14T13:56:52;25.20;53.30
67817;DHT22;54614;47.576;7.524;2023-06-14T13:59:18;25.20;53.30
67817;DHT22;54614;47.576;7.524;2023-06-14T14:01:45;25.20;53.30
67817;DHT22;54614;47.576;7.524;2023-06-14T14:04:10;25.20;53.30
67817;DHT22;54614;47.576;7.524;2023-06-14T14:06:36;25.20;53.30
67817;DHT22;54614;47.576;7.524;2023-06-14T14:09:02;25.20;53.40
67817;DHT22;54614;47.576;7.524;2023-06-14T14:11:28;25.20;53.40
67817;DHT22;54614;47.576;7.524;2023-06-14T14:13:58;25.20;53.40
67817;DHT22;54614;47.576;7.524;2023-06-14T14:16:24;25.20;53.40
67817;DHT22;54614;47.576;7.524;2023-06-14T14:18:51;25.20;53.40
67817;DHT22;54614;47.576;7.524;2023-06-14T14:21:16;25.20;53.30
67817;DHT22;54614;47.576;7.524;2023-06-14T14:23:42;25.30;53.40
67817;DHT22;54614;47.576;7.524;2023-06-14T14:26:09;25.30;53.40
67817;DHT22;54614;47.576;7.524;2023-06-14T14:28:35;25.20;53.40
67817;DHT22;54614;47.576;7.524;2023-06-14T14:31:01;25.30;53.50
67817;DHT22;54614;47.576;7.524;2023-06-14T14:33:27;25.20;53.40
67817;DHT22;54614;47.576;7.524;2023-06-14T14:35:53;25.30;53.60
67817;DHT22;54614;47.576;7.524;2023-06-14T14:38:19;25.30;53.50
67817;DHT22;54614;47.576;7.524;2023-06-14T14:40:45;25.30;53.50
67817;DHT22;54614;47.576;7.524;2023-06-14T14:43:11;25.30;53.60
67817;DHT22;54614;47.576;7.524;2023-06-14T14:45:37;25.30;53.60
67817;DHT22;54614;47.576;7.524;2023-06-14T14:48:03;25.40;53.60
67817;DHT22;54614;47.576;7.524;2023-06-14T14:50:29;25.30;53.60
67817;DHT22;54614;47.576;7.524;2023-06-14T14:52:55;25.30;53.60
67817;DHT22;54614;47.576;7.524;2023-06-14T14:55:21;25.40;53.70
67817;DHT22;54614;47.576;7.524;2023-06-14T14:57:47;25.40;53.70
67817;DHT22;54614;47.576;7.524;2023-06-14T15:00:14;25.40;53.70
67817;DHT22;54614;47.576;7.524;2023-06-14T15:02:40;25.40;53.70
67817;DHT22;54614;47.576;7.524;2023-06-14T15:05:06;25.40;53.70
67817;DHT22;54614;47.576;7.524;2023-06-14T15:07:32;25.40;53.70
67817;DHT22;54614;47.576;7.524;2023-06-14T15:09:59;25.40;53.70
67817;DHT22;54614;47.576;7.524;2023-06-14T15:12:26;25.40;53.70
67817;DHT22;54614;47.576;7.524;2023-06-14T15:14:52;25.40;53.70
67817;DHT22;54614;47.576;7.524;2023-06-14T15:17:19;25.40;53.70
67817;DHT22;54614;47.576;7.524;2023-06-14T15:19:46;25.40;53.60
67817;DHT22;54614;47.576;7.524;2023-06-14T15:22:13;25.50;53.60
67817;DHT22;54614;47.576;7.524;2023-06-14T15:24:43;25.50;53.50
67817;DHT22;54614;47.576;7.524;2023-06-14T15:27:09;25.50;53.50
67817;DHT22;54614;47.576;7.524;2023-06-14T15:29:38;25.50;53.40
67817;DHT22;54614;47.576;7.524;2023-06-14T15:32:05;25.50;53.40
67817;DHT22;54614;47.576;7.524;2023-06-14T15:34:32;25.50;53.40
67817;DHT22;54614;47.576;7.524;2023-06-14T15:36:58;25.50;53.40
67817;DHT22;54614;47.576;7.524;2023-06-14T15:39:24;25.50;53.30
67817;DHT22;54614;47.576;7.524;2023-06-14T15:41:52;25.50;53.40
67817;DHT22;54614;47.576;7.524;2023-06-14T15:44:18;25.50;53.30
67817;DHT22;54614;47.576;7.524;2023-06-14T15:46:44;25.50;53.20
67817;DHT22;54614;47.576;7.524;2023-06-14T15:49:10;25.50;53.20
67817;DHT22;54614;47.576;7.524;2023-06-14T15:51:36;25.50;53.20